createdAt,value
2023-02-13T00:25:03.508Z,45.74
2023-02-13T00:53:59.096Z,45.74
2023-02-13T01:22:58.310Z,45.72
2023-02-13T01:51:40.834Z,45.69
2023-02-13T02:20:33.033Z,45.68
2023-02-13T02:49:30.323Z,45.67
2023-02-13T03:18:32.222Z,45.67
2023-02-13T03:47:37.008Z,45.65
2023-02-13T04:16:40.479Z,45.66
2023-02-13T04:45:26.221Z,45.62
2023-02-13T05:14:37.740Z,45.62
2023-02-13T05:43:32.060Z,45.59
2023-02-13T06:12:35.450Z,47.34
2023-02-13T06:41:22.187Z,46.53
2023-02-13T07:10:14.504Z,46.19
2023-02-13T07:39:11.974Z,47.6
2023-02-13T08:07:41.514Z,48.5
2023-02-13T08:36:32.068Z,47.6
2023-02-13T09:05:20.066Z,47.8
2023-02-13T09:34:15.436Z,48.51
2023-02-13T10:03:09.355Z,48.52
2023-02-13T10:32:11.015Z,47.49
2023-02-13T11:00:51.144Z,46.32
2023-02-13T11:29:42.514Z,45.71
2023-02-13T11:58:34.209Z,47.68
2023-02-13T12:27:24.065Z,46.95
2023-02-13T12:56:18.088Z,46.46
2023-02-13T13:25:13.031Z,46.34
2023-02-13T13:53:46.183Z,46.31
2023-02-13T14:22:36.528Z,46.23
2023-02-13T14:51:26.673Z,46.17
2023-02-13T15:20:14.277Z,46.09
2023-02-13T15:49:00.733Z,46.06
2023-02-13T16:18:04.441Z,46.01
2023-02-13T16:46:57.355Z,45.99
2023-02-13T17:15:47.642Z,45.95
2023-02-13T17:44:44.324Z,45.92
2023-02-13T18:13:45.807Z,45.92
2023-02-13T18:42:38.390Z,45.89
2023-02-13T20:08:55.073Z,45.83
2023-02-13T20:37:53.014Z,45.8
2023-02-13T21:06:47.977Z,45.78
2023-02-13T21:35:44.514Z,45.78
2023-02-13T22:04:25.152Z,45.75
2023-02-13T22:33:19.116Z,45.71
2023-02-13T23:02:11.896Z,45.71
2023-02-13T23:31:05.532Z,45.71
2023-02-13T23:59:53.014Z,45.68
